Time;durP1;ratioP1;P1;durP2;ratioP2;P2;SDS_P1;SDS_P2;PMS_P1;PMS_P2;Temp;Humidity;BMP_temperature;BMP_pressure;BME280_temperature;BME280_humidity;BME280_pressure;Samples;Min_cycle;Max_cycle;Signal;HPM_P1;HPM_P2
2023/03/28 00:00:16;;;;;;;3.60;3.30;;;;;;;4.69;92.23;93788.69;5038823;28;20437;-77
2023/03/28 00:02:43;;;;;;;3.80;3.50;;;;;;;4.70;90.92;93792.94;5074067;28;20449;-76
2023/03/28 00:05:11;;;;;;;3.63;3.30;;;;;;;4.78;89.80;93808.75;5073841;28;20452;-78
2023/03/28 00:07:38;;;;;;;3.30;3.10;;;;;;;4.76;89.13;93810.66;5073861;28;20990;-77
2023/03/28 00:10:06;;;;;;;3.37;3.17;;;;;;;4.77;87.98;93818.31;5074148;28;20448;-77
2023/03/28 00:12:33;;;;;;;2.77;2.57;;;;;;;4.66;87.19;93824.38;5073914;28;20484;-77
2023/03/28 00:15:00;;;;;;;3.40;3.10;;;;;;;4.65;87.34;93837.50;5073769;28;20948;-77
2023/03/28 00:17:29;;;;;;;3.10;2.90;;;;;;;4.62;87.34;93835.09;5073899;28;20818;-78
2023/03/28 00:19:56;;;;;;;3.47;3.17;;;;;;;4.66;87.35;93871.16;5055118;28;20440;-78
2023/03/28 00:22:23;;;;;;;2.93;2.73;;;;;;;4.63;86.30;93860.16;5073606;28;20796;-78
2023/03/28 00:24:52;;;;;;;3.43;3.20;;;;;;;4.72;86.20;93879.41;5073854;28;20867;-78
2023/03/28 00:27:19;;;;;;;3.10;2.83;;;;;;;4.65;84.60;93882.47;5073591;28;20452;-77
2023/03/28 00:29:46;;;;;;;3.53;2.97;;;;;;;4.59;87.15;93895.09;5073475;28;20452;-77
2023/03/28 00:32:12;;;;;;;2.63;2.43;;;;;;;4.33;84.62;93905.72;5073246;28;20484;-77
2023/03/28 00:34:40;;;;;;;3.27;3.00;;;;;;;4.25;85.52;93905.47;5073663;28;20848;-77
2023/03/28 00:37:09;;;;;;;3.37;3.07;;;;;;;4.22;86.18;93923.06;5073185;28;20452;-77
2023/03/28 00:39:36;;;;;;;3.27;3.00;;;;;;;4.11;85.04;93897.94;5073165;28;20957;-78
2023/03/28 00:42:03;;;;;;;3.10;2.90;;;;;;;3.96;86.55;93906.84;5073301;28;20942;-78
2023/03/28 00:44:45;;;;;;;4.23;3.83;;;;;;;3.94;86.20;93908.75;5073369;28;20521;-77
2023/03/28 00:47:24;;;;;;;4.30;3.90;;;;;;;3.79;86.31;93904.72;5072991;28;20447;-77
2023/03/28 00:49:53;;;;;;;4.17;3.87;;;;;;;3.77;87.76;93904.81;5073225;28;20555;-78
2023/03/28 00:52:23;;;;;;;3.83;3.60;;;;;;;3.72;88.47;93915.50;5072883;28;20994;-77
2023/03/28 00:54:52;;;;;;;3.97;3.67;;;;;;;3.61;87.28;93918.09;5072934;28;20543;-78
2023/03/28 00:57:19;;;;;;;3.77;3.47;;;;;;;3.59;88.13;93939.88;5072737;28;20514;-77
2023/03/28 00:59:46;;;;;;;4.37;3.97;;;;;;;3.50;87.64;93941.38;5073184;28;20502;-78
2023/03/28 01:02:13;;;;;;;4.97;4.53;;;;;;;3.32;88.03;93922.78;5072975;28;20780;-77
2023/03/28 01:04:48;;;;;;;5.43;4.93;;;;;;;3.28;88.81;93926.53;5072113;28;20935;-77
2023/03/28 01:07:17;;;;;;;5.03;4.63;;;;;;;3.18;88.46;93930.75;5072698;28;20446;-77
2023/03/28 01:09:44;;;;;;;5.93;5.43;;;;;;;3.23;89.04;93933.00;5072960;28;20445;-77
2023/03/28 01:12:13;;;;;;;5.70;5.20;;;;;;;3.25;89.31;93941.50;5072504;28;20225;-77
2023/03/28 01:14:40;;;;;;;4.80;4.47;;;;;;;3.15;87.19;93933.53;5072588;28;20453;-76
2023/03/28 01:17:07;;;;;;;6.63;4.77;;;;;;;3.15;87.97;93946.50;5072698;28;20818;-78
2023/03/28 01:20:01;;;;;;;5.40;4.90;;;;;;;3.15;87.08;93950.84;5072593;28;20494;-78
2023/03/28 01:23:19;;;;;;;4.27;3.53;;;;;;;2.93;86.27;93956.75;5056477;28;20448;-78
2023/03/28 01:26:19;;;;;;;5.22;4.82;;;;;;;2.85;86.80;93962.44;5049895;28;20952;-77
2023/03/28 01:29:14;;;;;;;3.83;3.53;;;;;;;2.88;86.19;93953.63;4990539;28;20212;-80
2023/03/28 01:32:15;;;;;;;4.43;4.05;;;;;;;2.88;87.10;93951.03;4895013;29;20536;-78
2023/03/28 01:35:06;;;;;;;5.00;4.60;;;;;;;2.88;86.79;93938.91;4857874;29;20223;-77
2023/03/28 01:37:41;;;;;;;4.43;4.03;;;;;;;2.89;86.42;93960.44;4857841;29;20223;-78
2023/03/28 01:40:31;;;;;;;4.78;4.40;;;;;;;2.86;86.54;93924.41;4857698;29;20216;-78
2023/03/28 01:43:10;;;;;;;4.43;4.00;;;;;;;2.77;86.57;93954.38;4857901;29;20209;-78
2023/03/28 01:45:44;;;;;;;5.65;5.15;;;;;;;2.85;86.20;93959.00;4857721;29;20462;-78
2023/03/28 01:48:21;;;;;;;4.63;4.23;;;;;;;2.82;85.60;93948.88;4857836;29;20244;-78
2023/03/28 01:50:56;;;;;;;6.03;4.35;;;;;;;2.78;85.18;93954.25;4857428;29;20485;-78
2023/03/28 01:53:31;;;;;;;5.47;4.00;;;;;;;2.77;84.82;93954.38;4857382;29;20819;-77
2023/03/28 01:56:03;;;;;;;4.47;4.18;;;;;;;2.83;86.39;93971.25;4860136;29;20512;-79
2023/03/28 01:58:38;;;;;;;5.30;4.80;;;;;;;2.73;85.37;93966.72;4876059;29;20212;-78
2023/03/28 02:01:12;;;;;;;5.60;4.30;;;;;;;2.71;85.16;93952.22;4876356;29;20448;-77
2023/03/28 02:03:43;;;;;;;5.30;4.90;;;;;;;2.78;84.68;93930.13;4876117;29;20453;-78
2023/03/28 02:06:11;;;;;;;4.83;4.40;;;;;;;2.87;85.26;93946.78;4900524;29;20372;-78
2023/03/28 02:08:45;;;;;;;4.15;3.85;;;;;;;2.71;85.11;93958.22;4955125;28;20431;-79
2023/03/28 02:11:12;;;;;;;6.07;3.90;;;;;;;2.69;85.09;93954.09;5027147;28;20214;-79
2023/03/28 02:13:43;;;;;;;4.93;4.10;;;;;;;2.70;84.88;93966.94;5071852;28;20486;-79
2023/03/28 02:16:13;;;;;;;3.73;3.43;;;;;;;2.76;84.51;93950.97;5074601;28;20436;-77
2023/03/28 02:18:45;;;;;;;4.13;3.83;;;;;;;2.68;85.68;93950.66;5075879;28;20444;-78
2023/03/28 02:21:18;;;;;;;7.77;5.10;;;;;;;2.75;85.18;93956.25;5075747;28;20213;-79
2023/03/28 02:23:51;;;;;;;10.03;6.03;;;;;;;2.75;85.36;93930.34;5076639;28;20440;-78
2023/03/28 02:26:19;;;;;;;5.50;5.00;;;;;;;2.70;86.18;93953.97;5076031;28;20875;-78
2023/03/28 02:28:49;;;;;;;5.65;5.15;;;;;;;2.70;84.93;93950.56;5076187;28;20569;-78
2023/03/28 02:31:16;;;;;;;7.25;6.55;;;;;;;2.81;86.34;93958.41;5075771;28;20212;-78
2023/03/28 02:33:45;;;;;;;7.40;5.70;;;;;;;2.83;86.92;93951.34;5075733;28;20218;-80
2023/03/28 02:36:27;;;;;;;5.10;4.70;;;;;;;2.75;85.71;93948.47;5075566;28;20226;-79
2023/03/28 02:39:07;;;;;;;5.53;5.03;;;;;;;2.83;86.60;93946.16;5076052;28;20202;-78
2023/03/28 02:41:43;;;;;;;4.60;4.20;;;;;;;2.78;85.21;93949.09;5075420;28;20299;-79
2023/03/28 02:44:23;;;;;;;5.93;5.35;;;;;;;2.89;86.48;93961.31;5075574;28;20945;-78
2023/03/28 02:47:00;;;;;;;4.30;3.90;;;;;;;2.93;85.72;93957.56;5075695;28;20186;-78
2023/03/28 02:49:34;;;;;;;5.97;4.75;;;;;;;2.91;85.61;93967.22;5075354;28;20472;-78
2023/03/28 02:52:13;;;;;;;5.13;4.63;;;;;;;2.91;84.56;93949.06;5075339;28;20619;-79
2023/03/28 02:54:49;;;;;;;5.50;5.00;;;;;;;3.01;84.90;93972.56;5075188;28;20777;-79
2023/03/28 02:57:24;;;;;;;4.47;4.07;;;;;;;3.00;84.33;93969.16;5075420;28;20501;-78
2023/03/28 02:59:57;;;;;;;5.95;4.40;;;;;;;2.86;84.19;93968.44;5074982;28;20937;-79
2023/03/28 03:02:24;;;;;;;4.77;4.40;;;;;;;2.94;85.47;93967.00;5075191;28;20206;-78
2023/03/28 03:04:51;;;;;;;7.45;4.90;;;;;;;2.90;84.65;93965.56;5075203;28;20440;-79
2023/03/28 03:07:19;;;;;;;11.52;4.05;;;;;;;2.99;85.16;93970.09;5056468;28;20333;-79
2023/03/28 03:09:52;;;;;;;5.60;4.40;;;;;;;2.99;84.36;93964.91;5074946;28;20193;-78
2023/03/28 03:12:19;;;;;;;4.70;4.30;;;;;;;3.03;83.53;93968.94;5075983;28;20451;-77
2023/03/28 03:14:49;;;;;;;4.07;3.77;;;;;;;3.06;83.95;93975.66;5040973;28;20831;-78
2023/03/28 03:17:16;;;;;;;4.00;3.60;;;;;;;3.05;82.39;93972.25;5076677;28;20505;-79
2023/03/28 03:19:43;;;;;;;5.00;3.70;;;;;;;3.09;82.06;93975.44;5075823;28;20464;-78
2023/03/28 03:22:11;;;;;;;4.83;4.43;;;;;;;3.21;82.51;93986.72;5040773;28;20566;-78
2023/03/28 03:24:38;;;;;;;4.30;4.00;;;;;;;3.28;82.21;93991.34;5074963;28;20535;-79
2023/03/28 03:27:06;;;;;;;4.30;3.93;;;;;;;3.21;82.51;93992.75;5073430;28;20476;-81
2023/03/28 03:29:33;;;;;;;3.70;3.40;;;;;;;3.17;82.61;94000.81;5074698;28;20422;-79
2023/03/28 03:31:59;;;;;;;4.28;3.88;;;;;;;3.02;81.85;94000.97;5074653;28;20205;-79
2023/03/28 03:34:26;;;;;;;7.65;4.20;;;;;;;2.98;83.70;94009.88;5074623;28;20635;-79
2023/03/28 03:36:53;;;;;;;5.00;4.50;;;;;;;2.98;82.76;94024.59;5074379;28;20622;-78
2023/03/28 03:39:20;;;;;;;4.23;3.70;;;;;;;3.00;82.41;94025.34;5074478;28;20433;-79
2023/03/28 03:41:47;;;;;;;3.70;3.43;;;;;;;3.02;81.68;94046.78;5074599;28;20444;-79
2023/03/28 03:44:15;;;;;;;3.88;3.58;;;;;;;2.84;81.84;94033.31;5074591;28;20440;-79
2023/03/28 03:46:42;;;;;;;4.80;4.35;;;;;;;2.90;81.70;94045.03;5074060;28;20507;-81
2023/03/28 03:49:09;;;;;;;6.23;4.00;;;;;;;2.82;81.54;94026.59;5055240;28;20608;-79
2023/03/28 03:51:38;;;;;;;5.10;3.35;;;;;;;2.77;82.56;94048.47;5074347;28;20549;-78
2023/03/28 03:54:05;;;;;;;3.88;3.55;;;;;;;2.73;81.04;94065.16;5055134;28;20305;-77
2023/03/28 03:56:32;;;;;;;4.10;3.70;;;;;;;2.70;81.21;94070.53;5073945;28;20628;-77
2023/03/28 03:58:59;;;;;;;3.93;3.63;;;;;;;2.73;80.90;94077.25;5073974;28;20502;-79
2023/03/28 04:01:28;;;;;;;3.80;3.50;;;;;;;2.80;81.65;94081.91;5074265;28;20448;-78
2023/03/28 04:03:55;;;;;;;4.13;3.80;;;;;;;2.73;81.05;94079.84;5073899;28;20202;-79
2023/03/28 04:06:22;;;;;;;2.60;2.40;;;;;;;2.52;81.05;94081.28;5074093;28;20506;-81
2023/03/28 04:08:50;;;;;;;3.53;3.33;;;;;;;2.53;81.16;94078.59;5074078;28;20428;-77
2023/03/28 04:11:17;;;;;;;4.07;3.77;;;;;;;2.60;80.60;94094.53;5021860;28;20726;-77
2023/03/28 04:13:44;;;;;;;4.00;3.20;;;;;;;2.66;80.27;94094.16;5073811;28;20490;-79
2023/03/28 04:16:12;;;;;;;3.95;3.65;;;;;;;2.74;80.90;94099.66;5073975;28;20468;-78
2023/03/28 04:18:44;;;;;;;3.70;3.50;;;;;;;2.81;80.32;94108.66;5073770;28;20675;-78
2023/03/28 04:21:11;;;;;;;4.17;3.90;;;;;;;2.85;80.40;94110.09;5073478;28;20444;-79
2023/03/28 04:23:42;;;;;;;3.70;3.42;;;;;;;2.95;79.42;94111.16;5073632;28;21027;-79
2023/03/28 04:26:19;;;;;;;4.33;3.93;;;;;;;3.03;78.73;94119.22;5073486;28;20293;-79
2023/03/28 04:28:46;;;;;;;4.60;4.17;;;;;;;2.92;78.57;94105.34;5071358;28;20484;-78
2023/03/28 04:31:13;;;;;;;3.90;3.60;;;;;;;2.84;78.46;94110.22;5070874;28;20445;-78
2023/03/28 04:33:44;;;;;;;5.60;5.10;;;;;;;2.97;78.89;94130.03;5070920;28;20480;-78
2023/03/28 04:36:11;;;;;;;4.27;3.87;;;;;;;3.09;79.26;94123.16;5072526;28;20440;-78
2023/03/28 04:38:40;;;;;;;5.07;4.65;;;;;;;3.11;76.94;94137.69;5072883;28;20456;-78
2023/03/28 04:41:07;;;;;;;6.23;4.50;;;;;;;3.19;77.84;94149.31;5073249;28;20201;-78
2023/03/28 04:43:34;;;;;;;4.80;4.40;;;;;;;3.31;76.60;94158.84;5074053;28;20497;-78
2023/03/28 04:46:02;;;;;;;3.93;3.53;;;;;;;3.34;75.29;94159.44;5055520;28;20813;-77
2023/03/28 04:48:30;;;;;;;5.53;3.70;;;;;;;3.48;75.51;94160.28;5074339;28;20522;-77
2023/03/28 04:50:58;;;;;;;8.13;4.73;;;;;;;3.43;75.28;94189.94;5074513;28;20483;-77
2023/03/28 04:53:25;;;;;;;6.57;5.90;;;;;;;3.49;74.37;94187.88;5073946;28;20484;-77
2023/03/28 04:55:52;;;;;;;4.90;4.37;;;;;;;3.29;72.42;94197.00;5074466;28;20459;-77
2023/03/28 04:58:20;;;;;;;5.70;4.20;;;;;;;3.17;72.47;94184.84;5073350;28;21205;-79
2023/03/28 05:00:48;;;;;;;5.83;5.23;;;;;;;3.08;73.66;94194.91;5072780;28;20471;-76
2023/03/28 05:03:17;;;;;;;12.50;7.77;;;;;;;3.06;74.03;94209.72;5072967;28;20444;-78
2023/03/28 05:05:44;;;;;;;16.20;10.20;;;;;;;2.91;73.27;94186.63;5073509;28;20484;-80
2023/03/28 05:08:13;;;;;;;12.55;8.45;;;;;;;2.69;73.72;94192.38;5055267;28;20463;-77
2023/03/28 05:10:40;;;;;;;8.70;7.17;;;;;;;2.75;79.41;94203.16;5073669;28;20191;-78
2023/03/28 05:13:06;;;;;;;9.30;7.90;;;;;;;2.64;74.94;94192.69;5073708;28;20502;-79
2023/03/28 05:15:33;;;;;;;14.70;8.40;;;;;;;2.90;80.70;94208.28;5073416;28;20457;-79
2023/03/28 05:18:00;;;;;;;11.80;9.20;;;;;;;2.90;81.69;94195.31;5072910;28;20459;-77
2023/03/28 05:20:27;;;;;;;9.90;8.40;;;;;;;3.15;88.41;94191.91;5072843;28;20451;-78
2023/03/28 05:22:54;;;;;;;10.27;7.73;;;;;;;3.03;81.07;94193.56;5072705;28;20444;-78
2023/03/28 05:25:22;;;;;;;13.97;7.57;;;;;;;2.99;80.25;94205.91;5073505;28;20451;-77
2023/03/28 05:27:49;;;;;;;8.77;7.73;;;;;;;2.98;82.50;94209.41;5073137;28;20456;-76
2023/03/28 05:30:16;;;;;;;12.80;9.60;;;;;;;2.76;76.98;94225.53;5073940;28;20454;-77
2023/03/28 05:32:43;;;;;;;9.77;8.30;;;;;;;2.51;78.75;94219.44;5073933;28;20448;-78
2023/03/28 05:35:13;;;;;;;8.85;7.97;;;;;;;2.42;79.02;94220.88;5073674;28;20480;-78
2023/03/28 05:37:40;;;;;;;7.87;7.07;;;;;;;2.40;80.70;94215.78;5073302;28;20205;-79
2023/03/28 05:40:09;;;;;;;8.30;7.30;;;;;;;2.39;82.71;94232.25;5073275;28;20486;-78
2023/03/28 05:42:38;;;;;;;9.38;8.40;;;;;;;2.25;82.32;94234.88;5073895;28;20194;-78
2023/03/28 05:45:07;;;;;;;12.33;9.10;;;;;;;2.24;83.24;94256.50;5073196;28;20195;-77
2023/03/28 05:47:34;;;;;;;9.65;8.65;;;;;;;2.24;82.61;94253.09;5071821;28;20442;-78
2023/03/28 05:50:03;;;;;;;13.23;8.05;;;;;;;2.21;84.36;94248.94;5070865;28;20217;-80
2023/03/28 05:52:35;;;;;;;8.55;7.63;;;;;;;2.15;84.97;94255.34;5068270;28;20660;-80
2023/03/28 05:55:02;;;;;;;9.20;7.30;;;;;;;2.19;89.65;94245.63;5050983;28;20673;-79
2023/03/28 05:57:28;;;;;;;8.27;7.43;;;;;;;2.21;88.42;94248.13;5070287;28;20843;-78
2023/03/28 05:59:56;;;;;;;8.37;7.40;;;;;;;2.17;86.82;94245.72;5065606;28;20198;-79
2023/03/28 06:02:24;;;;;;;10.70;9.60;;;;;;;2.20;87.31;94239.50;5067732;28;20939;-79
2023/03/28 06:04:54;;;;;;;15.03;9.57;;;;;;;2.32;91.40;94254.28;5034908;28;20472;-78
2023/03/28 06:07:21;;;;;;;10.07;8.93;;;;;;;2.36;85.09;94247.16;5071564;28;20536;-79
2023/03/28 06:09:50;;;;;;;11.05;9.18;;;;;;;2.32;83.43;94267.25;5069669;28;20451;-80
2023/03/28 06:12:17;;;;;;;14.77;11.33;;;;;;;2.29;82.63;94262.22;5036435;28;20665;-79
2023/03/28 06:14:44;;;;;;;12.43;10.40;;;;;;;2.45;84.43;94272.47;5063992;28;20983;-81
2023/03/28 06:17:12;;;;;;;11.10;8.27;;;;;;;2.32;81.93;94261.22;5063227;28;20657;-81
2023/03/28 06:19:39;;;;;;;17.45;11.85;;;;;;;2.37;82.69;94275.53;5052703;28;20448;-81
2023/03/28 06:22:06;;;;;;;13.70;11.60;;;;;;;2.39;83.66;94273.69;5064464;28;20285;-80
2023/03/28 06:24:32;;;;;;;10.53;8.40;;;;;;;2.36;83.01;94283.41;5071506;28;20448;-79
2023/03/28 06:26:59;;;;;;;9.93;8.93;;;;;;;2.38;83.97;94287.56;5071174;28;20856;-79
2023/03/28 06:29:26;;;;;;;14.98;10.43;;;;;;;2.38;85.78;94282.38;5071994;28;20208;-79
2023/03/28 06:31:53;;;;;;;11.27;10.13;;;;;;;2.38;83.25;94300.50;5052763;28;20609;-78
2023/03/28 06:34:21;;;;;;;12.02;10.82;;;;;;;2.43;84.23;94308.81;5071598;28;20226;-78
2023/03/28 06:36:48;;;;;;;8.93;8.10;;;;;;;2.48;82.45;94311.94;5071782;28;20528;-78
2023/03/28 06:39:15;;;;;;;9.93;9.00;;;;;;;2.55;82.01;94309.78;5071427;28;20198;-79
2023/03/28 06:41:44;;;;;;;9.93;8.37;;;;;;;2.50;78.14;94306.66;5071477;28;20201;-77
2023/03/28 06:44:14;;;;;;;9.88;8.75;;;;;;;2.40;76.27;94316.78;5071621;28;20533;-78
2023/03/28 06:46:41;;;;;;;9.00;7.67;;;;;;;2.45;77.13;94316.47;5071563;28;20198;-78
2023/03/28 06:49:08;;;;;;;7.23;6.53;;;;;;;2.55;76.65;94304.59;5071376;28;20448;-77
2023/03/28 06:51:36;;;;;;;16.63;10.30;;;;;;;2.76;77.14;94320.56;5070859;28;20476;-79
2023/03/28 06:54:03;;;;;;;15.40;10.63;;;;;;;2.83;75.51;94314.03;5071256;28;20483;-77
2023/03/28 06:56:30;;;;;;;14.37;11.50;;;;;;;2.96;74.53;94327.91;5071437;28;20447;-77
2023/03/28 06:58:56;;;;;;;11.00;8.57;;;;;;;2.80;72.75;94332.38;5071382;28;20498;-77
2023/03/28 07:01:23;;;;;;;9.87;8.87;;;;;;;2.92;75.68;94344.56;5072326;28;20440;-77
2023/03/28 07:03:50;;;;;;;14.37;8.67;;;;;;;3.11;73.64;94329.47;5074616;28;20919;-77
2023/03/28 07:06:17;;;;;;;10.30;9.27;;;;;;;3.37;77.83;94342.50;5074589;28;20498;-78
2023/03/28 07:08:45;;;;;;;10.47;9.50;;;;;;;3.33;73.13;94354.03;5074760;28;20444;-78
2023/03/28 07:11:12;;;;;;;10.27;8.40;;;;;;;2.99;70.95;94353.59;5074372;28;20436;-80
2023/03/28 07:13:39;;;;;;;8.20;7.37;;;;;;;2.82;72.56;94365.97;5074811;28;20440;-77
2023/03/28 07:16:07;;;;;;;8.10;7.33;;;;;;;2.67;73.47;94355.66;5074965;28;20841;-76
2023/03/28 07:18:34;;;;;;;7.88;7.18;;;;;;;2.71;74.63;94356.28;5074876;28;20444;-77
2023/03/28 07:21:06;;;;;;;8.53;7.77;;;;;;;2.73;73.98;94372.56;5074169;28;20213;-77
2023/03/28 07:23:32;;;;;;;8.27;6.80;;;;;;;2.78;74.36;94373.09;5074667;28;20459;-77
2023/03/28 07:26:01;;;;;;;10.83;7.87;;;;;;;3.00;75.45;94372.56;5055832;28;20463;-76
2023/03/28 07:28:28;;;;;;;11.67;8.87;;;;;;;3.03;72.78;94365.44;5074320;28;20448;-77
2023/03/28 07:30:55;;;;;;;9.65;8.40;;;;;;;3.05;72.58;94366.16;5074223;28;20846;-76
2023/03/28 07:33:22;;;;;;;17.77;11.32;;;;;;;3.02;72.24;94370.72;5055025;28;20676;-77
2023/03/28 07:35:48;;;;;;;14.03;8.83;;;;;;;3.22;74.99;94365.09;5074158;28;20222;-77
2023/03/28 07:38:15;;;;;;;9.33;8.43;;;;;;;3.07;69.24;94356.53;5074185;28;20440;-78
2023/03/28 07:40:42;;;;;;;8.90;7.70;;;;;;;3.10;69.09;94369.28;5073970;28;20464;-77
2023/03/28 07:43:10;;;;;;;10.80;9.17;;;;;;;3.22;68.51;94392.78;5074067;28;20444;-78
2023/03/28 07:45:37;;;;;;;11.13;8.40;;;;;;;3.43;68.53;94383.59;5055115;28;20444;-77
2023/03/28 07:48:04;;;;;;;9.00;8.10;;;;;;;3.35;67.88;94391.06;5074179;28;20867;-79
2023/03/28 07:50:35;;;;;;;7.50;6.80;;;;;;;3.47;68.67;94395.47;5072095;28;20476;-78
2023/03/28 07:53:02;;;;;;;10.30;8.03;;;;;;;3.34;69.10;94407.53;5073799;28;20507;-79
2023/03/28 07:55:29;;;;;;;7.73;7.03;;;;;;;3.46;68.24;94411.91;5073861;28;20518;-77
2023/03/28 07:57:55;;;;;;;10.53;7.93;;;;;;;3.50;67.99;94418.59;5074121;28;20799;-77
2023/03/28 08:00:24;;;;;;;7.50;6.17;;;;;;;3.24;66.63;94409.06;5073641;28;20437;-77
2023/03/28 08:02:52;;;;;;;17.93;7.80;;;;;;;3.26;68.12;94414.97;5035028;28;20473;-78
2023/03/28 08:05:18;;;;;;;7.13;6.43;;;;;;;3.15;67.49;94392.31;5053788;28;20445;-78
2023/03/28 08:07:45;;;;;;;7.10;6.23;;;;;;;3.04;68.51;94390.44;5072908;28;20489;-79
2023/03/28 08:10:13;;;;;;;14.70;10.83;;;;;;;3.20;69.54;94411.03;5073460;28;20487;-77
2023/03/28 08:12:40;;;;;;;9.73;8.60;;;;;;;3.15;69.67;94409.63;5072810;28;20436;-79
2023/03/28 08:15:08;;;;;;;17.17;9.60;;;;;;;3.21;70.13;94412.69;5073164;28;21003;-78
2023/03/28 08:17:36;;;;;;;12.17;9.90;;;;;;;3.19;68.92;94390.38;5073587;28;20440;-78
2023/03/28 08:20:05;;;;;;;7.40;6.43;;;;;;;3.21;70.46;94411.84;5054873;28;20437;-78
2023/03/28 08:22:32;;;;;;;9.70;7.73;;;;;;;3.18;71.53;94425.00;5073132;28;20446;-80
2023/03/28 08:24:59;;;;;;;8.27;7.40;;;;;;;3.20;72.28;94424.00;5073501;28;20456;-80
2023/03/28 08:27:25;;;;;;;6.97;6.37;;;;;;;3.32;72.46;94424.97;5073242;28;20951;-80
2023/03/28 08:29:52;;;;;;;7.10;6.40;;;;;;;3.42;73.77;94431.22;5073249;28;20996;-79
2023/03/28 08:32:19;;;;;;;7.80;7.10;;;;;;;3.53;72.34;94436.56;5073291;28;20449;-80
2023/03/28 08:34:47;;;;;;;6.90;6.30;;;;;;;3.26;73.93;94439.16;5072871;28;20294;-79
2023/03/28 08:37:14;;;;;;;9.83;6.67;;;;;;;3.28;74.26;94445.06;5072921;28;20433;-81
2023/03/28 08:39:41;;;;;;;7.40;6.60;;;;;;;3.23;72.96;94441.09;5073139;28;20469;-80
2023/03/28 08:42:31;;;;;;;6.77;6.00;;;;;;;3.37;73.06;94443.66;5074152;28;20455;-79
2023/03/28 08:45:13;;;;;;;6.10;5.50;;;;;;;3.45;71.21;94443.97;5074577;28;20530;-78
2023/03/28 08:47:48;;;;;;;6.20;5.70;;;;;;;3.31;71.62;94442.28;5054531;28;20809;-79
2023/03/28 08:54:13;;;;;;;7.10;6.50;;;;;;;3.61;75.60;94454.22;5051112;28;20849;-82
2023/03/28 08:56:44;;;;;;;7.47;6.77;;;;;;;3.72;71.24;94454.34;5060248;28;20465;-80
2023/03/28 08:59:14;;;;;;;9.77;5.97;;;;;;;3.90;71.93;94447.13;5038164;28;20448;-78
2023/03/28 09:01:42;;;;;;;8.27;6.60;;;;;;;3.99;69.32;94455.13;5072631;28;21158;-79
2023/03/28 09:04:20;;;;;;;7.13;6.40;;;;;;;4.08;68.44;94451.09;5073416;28;20863;-78
2023/03/28 09:06:49;;;;;;;8.90;6.73;;;;;;;4.20;67.71;94450.28;5064353;28;20553;-80
2023/03/28 09:09:37;;;;;;;6.63;6.00;;;;;;;4.10;67.03;94448.41;5069832;28;20476;-79
2023/03/28 09:12:19;;;;;;;11.07;8.20;;;;;;;4.12;67.88;94462.13;5053590;28;20483;-78
2023/03/28 09:15:15;;;;;;;6.97;6.00;;;;;;;4.30;66.69;94466.88;5069504;28;20527;-79
2023/03/28 09:17:55;;;;;;;11.00;7.73;;;;;;;4.35;67.36;94489.97;5072016;28;20523;-79
2023/03/28 09:20:28;;;;;;;5.80;5.20;;;;;;;4.33;66.71;94477.06;5072394;28;20467;-79
2023/03/28 09:23:07;;;;;;;7.07;6.40;;;;;;;4.45;67.04;94487.59;5073114;28;20950;-78
2023/03/28 09:25:46;;;;;;;8.60;7.70;;;;;;;4.52;67.95;94476.66;5072638;28;20444;-79
2023/03/28 09:28:23;;;;;;;13.53;10.53;;;;;;;4.60;66.12;94487.38;5073729;28;20474;-79
2023/03/28 09:30:52;;;;;;;10.00;8.00;;;;;;;4.56;66.59;94492.88;5072529;28;20490;-80
2023/03/28 09:33:23;;;;;;;8.50;7.70;;;;;;;4.43;66.90;94497.25;5072076;28;20791;-79
2023/03/28 09:35:53;;;;;;;10.30;7.60;;;;;;;4.33;66.97;94499.59;5071901;28;20480;-80
2023/03/28 09:38:24;;;;;;;8.53;7.73;;;;;;;4.32;68.09;94484.97;5072167;28;20448;-80
2023/03/28 09:40:55;;;;;;;15.37;10.40;;;;;;;4.49;67.70;94487.28;5072085;28;20440;-80
2023/03/28 09:43:33;;;;;;;9.57;8.23;;;;;;;4.52;68.81;94486.22;5071556;28;20436;-80
2023/03/28 09:46:04;;;;;;;9.33;6.43;;;;;;;4.34;66.39;94490.91;5072073;28;20453;-79
2023/03/28 09:48:34;;;;;;;7.37;6.67;;;;;;;4.18;67.07;94485.91;5053391;28;20459;-80
2023/03/28 09:51:02;;;;;;;8.63;7.77;;;;;;;4.04;68.24;94483.38;5071733;28;20866;-80
2023/03/28 09:53:30;;;;;;;7.37;5.90;;;;;;;3.94;68.35;94483.16;5071351;28;20436;-79
2023/03/28 09:56:03;;;;;;;7.93;7.20;;;;;;;3.99;70.41;94473.28;5071721;28;21048;-83
2023/03/28 09:58:46;;;;;;;8.07;7.27;;;;;;;4.15;71.41;94477.47;5072113;28;20494;-80
2023/03/28 10:01:29;;;;;;;7.30;6.70;;;;;;;4.18;69.62;94488.50;5053077;28;20429;-79
2023/03/28 10:03:56;;;;;;;6.17;5.60;;;;;;;4.04;67.20;94491.16;5066701;28;20459;-82
2023/03/28 10:06:26;;;;;;;9.57;7.93;;;;;;;3.83;69.19;94472.66;5073483;28;20475;-80
2023/03/28 10:08:53;;;;;;;6.60;6.00;;;;;;;3.89;67.56;94492.16;5054448;28;20880;-80
2023/03/28 10:11:21;;;;;;;9.70;7.03;;;;;;;3.92;66.23;94469.44;5072026;28;20444;-80
2023/03/28 10:13:49;;;;;;;11.60;6.13;;;;;;;3.94;65.11;94480.56;5071929;28;20886;-79
2023/03/28 10:16:25;;;;;;;12.37;7.40;;;;;;;4.13;64.40;94462.00;5071998;28;20894;-80
2023/03/28 10:18:53;;;;;;;8.63;7.77;;;;;;;4.35;63.63;94480.41;5072032;28;20443;-80
2023/03/28 10:21:24;;;;;;;8.33;7.33;;;;;;;4.80;63.42;94487.78;5071419;28;20440;-79
2023/03/28 10:23:58;;;;;;;7.03;6.10;;;;;;;4.89;61.20;94471.53;5072597;28;20863;-80
2023/03/28 10:26:28;;;;;;;7.23;6.10;;;;;;;5.00;61.05;94479.44;5071994;28;20869;-79
2023/03/28 10:28:58;;;;;;;8.83;7.23;;;;;;;5.17;60.16;94491.25;5071922;28;20448;-79
2023/03/28 10:31:29;;;;;;;7.30;6.30;;;;;;;5.09;59.39;94476.19;5072135;28;20868;-80
2023/03/28 10:33:58;;;;;;;11.70;8.10;;;;;;;5.25;60.93;94486.38;5072538;28;20448;-79
2023/03/28 10:36:30;;;;;;;10.43;7.77;;;;;;;5.24;59.47;94487.31;5074041;28;20484;-79
2023/03/28 10:38:59;;;;;;;6.70;6.17;;;;;;;5.18;58.63;94485.09;5096261;28;20444;-80
2023/03/28 10:41:28;;;;;;;7.20;6.50;;;;;;;5.09;58.03;94462.34;5096414;28;20456;-80
2023/03/28 10:43:57;;;;;;;7.17;5.67;;;;;;;4.77;57.83;94486.22;5098647;28;20458;-81
2023/03/28 10:46:27;;;;;;;6.43;5.90;;;;;;;4.55;59.74;94502.44;5095335;28;20486;-80
2023/03/28 10:48:58;;;;;;;6.97;6.43;;;;;;;4.44;60.68;94496.31;5094373;28;20448;-80
2023/03/28 10:51:26;;;;;;;6.30;5.80;;;;;;;4.68;61.00;94492.06;5096215;28;20474;-80
2023/03/28 10:54:10;;;;;;;9.97;6.37;;;;;;;4.82;63.13;94499.72;5094053;28;20467;-79
2023/03/28 10:56:41;;;;;;;13.33;6.20;;;;;;;4.65;63.14;94526.06;5093020;28;20498;-79
2023/03/28 10:59:37;;;;;;;8.63;6.90;;;;;;;4.47;61.01;94501.31;5063419;28;20428;-81
2023/03/28 11:02:22;;;;;;;9.97;7.07;;;;;;;4.41;65.07;94499.13;5092980;28;20471;-81
2023/03/28 11:04:56;;;;;;;7.53;6.53;;;;;;;4.38;61.96;94494.97;5094220;28;20478;-79
2023/03/28 11:07:32;;;;;;;7.00;6.30;;;;;;;4.57;63.31;94478.94;5094562;28;20424;-79
2023/03/28 11:10:10;;;;;;;15.37;9.27;;;;;;;4.80;61.97;94480.81;5093465;28;20432;-80
2023/03/28 11:12:51;;;;;;;11.17;6.90;;;;;;;4.92;61.01;94463.56;5079025;28;20446;-80
2023/03/28 11:15:27;;;;;;;6.70;6.10;;;;;;;5.21;64.53;94492.72;5075348;28;20475;-80
2023/03/28 11:18:03;;;;;;;6.70;5.73;;;;;;;5.36;59.65;94502.03;5057129;28;20432;-79
2023/03/28 11:20:40;;;;;;;9.40;7.43;;;;;;;5.47;60.63;94491.69;5075404;28;20451;-80
2023/03/28 11:23:34;;;;;;;8.20;6.27;;;;;;;5.35;59.19;94497.78;5057294;28;20842;-80
2023/03/28 11:26:07;;;;;;;6.30;5.80;;;;;;;5.26;59.40;94503.63;5075347;28;20440;-80
2023/03/28 11:28:44;;;;;;;4.53;4.23;;;;;;;5.02;58.32;94500.13;5074719;28;20444;-85
2023/03/28 11:31:17;;;;;;;13.40;6.73;;;;;;;4.95;59.62;94490.16;5056979;28;20443;-79
2023/03/28 11:33:55;;;;;;;9.10;5.67;;;;;;;5.02;57.90;94510.53;5076159;28;20530;-80
2023/03/28 11:36:28;;;;;;;4.90;4.50;;;;;;;5.06;57.54;94470.38;5074709;28;20495;-80
2023/03/28 11:38:59;;;;;;;9.73;5.30;;;;;;;5.09;57.75;94502.19;5075703;28;20566;-80
2023/03/28 11:41:31;;;;;;;6.50;5.90;;;;;;;5.28;57.68;94504.34;5075606;28;20452;-79
2023/03/28 11:44:05;;;;;;;6.07;5.47;;;;;;;5.46;58.26;94489.19;5075248;28;20432;-80
2023/03/28 11:46:35;;;;;;;6.47;5.93;;;;;;;5.43;55.89;94479.00;5075322;28;20494;-80
2023/03/28 11:49:14;;;;;;;8.10;6.00;;;;;;;5.50;54.22;94496.69;5074472;28;20467;-80
2023/03/28 11:51:45;;;;;;;6.20;5.53;;;;;;;5.51;54.67;94487.13;5075497;28;20428;-80
2023/03/28 11:54:16;;;;;;;6.50;5.80;;;;;;;5.41;57.22;94512.94;5074252;28;20877;-80
2023/03/28 11:56:49;;;;;;;6.60;6.00;;;;;;;5.42;55.48;94504.19;5022970;28;20483;-80
2023/03/28 11:59:23;;;;;;;6.90;6.17;;;;;;;5.25;53.83;94499.38;5073755;28;20463;-80